Pagrindinis puslapis
METAR-TAF:

METAR-TAF

Oro uostai :

Abha, Saudo Arabija

platuma: 18-14N, ilguma: 042-39E, Aukštis: 2090 m

Dabartinis oras

Ataskaita buvo paskelbta 35 minutes, ne 19:00 UTC
Vėjas 4 kt iš Pietų
Temperatūra 13°C
Drėgmė 88%
Slėgis 1025 hPa
Matomumas 10 km arba daugiau
nėra debesų žemiau 1500 m ir nėra kamuolinių lietaus debesų

METAR: OEAB 251900Z 19004KT CAVOK 13/11 Q1025 NOSIG

Laikas: 22:35 (19:35 UTC)

Prognozė

Ataskaita buvo paskelbta 8 valandos ir 35 minutes, ne 11:00 UTC
Prognozė galioja nuo 25 metu 12 UTC su 26 metu 18 UTC
Vėjas 12 kt iš Pietų/Pietvakarių
Matomumas 10 km arba daugiau
Mažai debesys ne aukštis 2000 ft
Tapsmas
nuo 25 metu 18 UTC su 25 metu 20 UTC
Vėjas 3 kt nuo kintamojo kryptimis
Matomumas 10 km arba daugiau
nėra debesų žemiau 1500 m ir nėra kamuolinių lietaus debesų
Tapsmas
nuo 26 metu 06 UTC su 26 metu 08 UTC
Vėjas 12 kt iš Pietvakarių
Matomumas 10 km arba daugiau
Mažai debesys ne aukštis 2000 ft

TAF: OEAB 251100Z 2512/2618 20012KT 9999 FEW020 BECMG 2518/2520 VRB03KT CAVOK BECMG 2606/2608 22012KT 9999 FEW020

Orai ataskaitas ir orų prognozės (METAR, TAF).

turimą stotys yra geltonos ir raudonos taškus žemėlapyje.

Perkelti pele per norėdami pamatyti stoties vardą.

Tada spustelėkite, norėdami matyti oro stebėjimo ir prognozės.

Norėdami pakeisti žemėlapį: spustelėkite ant žalios mygtukų su juodo kryžiaus žemyn,; žalią mygtuką su brūkšneliu, jei norite nutolinti; arba žalių rodyklių gretimoms žemėlapius.


METAR-TAF: